Главная страница
METAR-TAF:

METAR-TAF

Аэропорты :

Астрахань, Россия

Нариманово

широта: 46-17N, долгота: 048-00-23E, высота над уровнем моря: 0 м

Текущие метеонаблюдения

Эта сводка был подготовлена 32 минут назад, в 15:30 UTC
Ветер 12 Узел от восточный
Температура -3°C
Влажность 93%
Давление 1027 hPa
Видимость 10 км и более
Нет облачности ниже 1500 м, и нет кучево-дождевой облачности

METAR: URWA 151530Z 10006MPS CAVOK M03/M04 Q1027 R09/010060 NOSIG RMK QFE772/1030

Время: 19:02 (16:02 UTC)

Прогноз

Эта сводка был подготовлена 2 часа и 2 минут назад, в 14:00 UTC
Прогноз действительный с 15-го 15 UTC до 15-го 24 UTC
Ветер 10 Узел от восточный с порывами до 19 Узел
Видимость 10 км и более
Рассеянная облачность на высоте 1100 фута

TAF: URWA 151400Z 1515/1524 10005G10MPS 9999 BKN011

Метеонаблюдения и прогнозы для более 4000 аэропортов (сводки METAR и TAF).

Имеющиеся станции представлены на карте желтыми и красными точками.

Чтобы увидеть название станции, наведите на нее мышь.

Затем щелкните, чтобы увидеть метеонаблюдения и метеопрогнозы.

Управление картой: чтобы увеличить масштаб, щелкните зеленые кнопки с черным крестиком; чтобы уменьшить масштаб, щелкните зеленую кнопку с тире; для просмотра соседних карт щелкайте зеленые стрелки.


METAR-TAF: